sensor_id;sensor_type;location;lat;lon;timestamp;P1;durP1;ratioP1;P2;durP2;ratioP2
12846;SDS011;6492;48.128;8.320;2022-10-04T06:11:56;13.77;;;8.23;;
12846;SDS011;6492;48.128;8.320;2022-10-04T06:16:07;11.60;;;6.93;;
12846;SDS011;6492;48.128;8.320;2022-10-04T06:20:26;10.27;;;7.57;;
12846;SDS011;6492;48.128;8.320;2022-10-04T06:25:10;10.13;;;7.10;;
12846;SDS011;6492;48.128;8.320;2022-10-04T06:29:17;8.87;;;6.77;;
12846;SDS011;6492;48.128;8.320;2022-10-04T06:33:25;12.80;;;7.00;;
12846;SDS011;6492;48.128;8.320;2022-10-04T06:42:26;13.20;;;8.03;;
12846;SDS011;6492;48.128;8.320;2022-10-04T06:46:41;16.63;;;13.03;;
12846;SDS011;6492;48.128;8.320;2022-10-04T06:50:48;12.50;;;9.17;;
12846;SDS011;6492;48.128;8.320;2022-10-04T06:55:03;10.63;;;7.50;;
12846;SDS011;6492;48.128;8.320;2022-10-04T07:04:09;10.60;;;7.20;;
12846;SDS011;6492;48.128;8.320;2022-10-04T07:08:22;11.83;;;7.93;;
12846;SDS011;6492;48.128;8.320;2022-10-04T07:12:37;10.50;;;6.70;;
12846;SDS011;6492;48.128;8.320;2022-10-04T07:16:44;9.47;;;7.70;;
12846;SDS011;6492;48.128;8.320;2022-10-04T07:20:50;9.80;;;7.83;;
12846;SDS011;6492;48.128;8.320;2022-10-04T07:25:06;9.20;;;6.90;;
12846;SDS011;6492;48.128;8.320;2022-10-04T07:29:15;10.70;;;7.60;;
12846;SDS011;6492;48.128;8.320;2022-10-04T07:33:24;10.43;;;7.23;;
12846;SDS011;6492;48.128;8.320;2022-10-04T07:37:31;9.27;;;6.77;;
12846;SDS011;6492;48.128;8.320;2022-10-04T07:41:45;11.13;;;6.80;;
12846;SDS011;6492;48.128;8.320;2022-10-04T07:45:50;9.73;;;6.80;;
12846;SDS011;6492;48.128;8.320;2022-10-04T07:50:12;9.17;;;7.17;;
12846;SDS011;6492;48.128;8.320;2022-10-04T07:54:24;10.30;;;6.60;;
12846;SDS011;6492;48.128;8.320;2022-10-04T07:58:38;10.33;;;6.67;;
12846;SDS011;6492;48.128;8.320;2022-10-04T08:02:53;11.33;;;6.63;;
12846;SDS011;6492;48.128;8.320;2022-10-04T08:07:12;10.33;;;6.70;;
12846;SDS011;6492;48.128;8.320;2022-10-04T08:11:21;8.73;;;6.50;;
12846;SDS011;6492;48.128;8.320;2022-10-04T08:15:33;10.63;;;7.20;;
12846;SDS011;6492;48.128;8.320;2022-10-04T08:19:41;6.57;;;5.60;;
12846;SDS011;6492;48.128;8.320;2022-10-04T08:23:54;9.53;;;6.23;;
12846;SDS011;6492;48.128;8.320;2022-10-04T08:28:11;9.90;;;6.00;;
12846;SDS011;6492;48.128;8.320;2022-10-04T08:32:48;7.73;;;5.20;;
12846;SDS011;6492;48.128;8.320;2022-10-04T08:36:58;5.77;;;4.53;;
12846;SDS011;6492;48.128;8.320;2022-10-04T08:41:24;5.20;;;4.70;;
12846;SDS011;6492;48.128;8.320;2022-10-04T08:45:54;6.30;;;4.70;;
12846;SDS011;6492;48.128;8.320;2022-10-04T08:50:25;6.13;;;4.67;;
12846;SDS011;6492;48.128;8.320;2022-10-04T08:55:03;6.20;;;4.00;;
12846;SDS011;6492;48.128;8.320;2022-10-04T09:04:30;4.10;;;3.67;;
12846;SDS011;6492;48.128;8.320;2022-10-04T09:13:38;4.47;;;3.57;;
12846;SDS011;6492;48.128;8.320;2022-10-04T09:17:49;4.10;;;3.37;;
12846;SDS011;6492;48.128;8.320;2022-10-04T09:26:22;4.20;;;2.67;;
12846;SDS011;6492;48.128;8.320;2022-10-04T09:30:31;3.07;;;2.47;;
12846;SDS011;6492;48.128;8.320;2022-10-04T09:34:48;2.10;;;1.90;;
12846;SDS011;6492;48.128;8.320;2022-10-04T09:39:24;2.43;;;2.10;;
12846;SDS011;6492;48.128;8.320;2022-10-04T09:48:18;2.27;;;1.77;;
12846;SDS011;6492;48.128;8.320;2022-10-04T09:52:28;2.00;;;1.80;;
12846;SDS011;6492;48.128;8.320;2022-10-04T09:56:46;2.33;;;2.10;;
12846;SDS011;6492;48.128;8.320;2022-10-04T10:01:09;2.53;;;1.70;;
12846;SDS011;6492;48.128;8.320;2022-10-04T10:05:22;1.50;;;1.33;;
12846;SDS011;6492;48.128;8.320;2022-10-04T10:09:37;2.13;;;1.57;;
12846;SDS011;6492;48.128;8.320;2022-10-04T10:14:17;1.70;;;1.43;;
12846;SDS011;6492;48.128;8.320;2022-10-04T10:18:37;1.63;;;1.47;;
12846;SDS011;6492;48.128;8.320;2022-10-04T10:22:53;2.27;;;1.33;;
12846;SDS011;6492;48.128;8.320;2022-10-04T10:27:14;1.50;;;1.40;;
12846;SDS011;6492;48.128;8.320;2022-10-04T10:31:36;1.67;;;1.48;;
12846;SDS011;6492;48.128;8.320;2022-10-04T10:36:03;1.40;;;1.30;;
12846;SDS011;6492;48.128;8.320;2022-10-04T10:40:29;1.38;;;1.27;;
12846;SDS011;6492;48.128;8.320;2022-10-04T10:44:44;1.65;;;1.48;;
12846;SDS011;6492;48.128;8.320;2022-10-04T10:49:06;1.20;;;1.10;;
12846;SDS011;6492;48.128;8.320;2022-10-04T10:53:23;1.63;;;1.20;;
12846;SDS011;6492;48.128;8.320;2022-10-04T10:57:50;1.35;;;1.25;;
12846;SDS011;6492;48.128;8.320;2022-10-04T11:07:04;2.38;;;1.13;;
12846;SDS011;6492;48.128;8.320;2022-10-04T11:11:27;1.40;;;1.20;;
12846;SDS011;6492;48.128;8.320;2022-10-04T11:20:39;1.52;;;1.10;;
12846;SDS011;6492;48.128;8.320;2022-10-04T11:25:18;1.40;;;1.30;;
12846;SDS011;6492;48.128;8.320;2022-10-04T11:29:46;1.95;;;1.55;;
12846;SDS011;6492;48.128;8.320;2022-10-04T11:34:26;1.55;;;1.45;;
12846;SDS011;6492;48.128;8.320;2022-10-04T11:38:50;1.48;;;1.20;;
12846;SDS011;6492;48.128;8.320;2022-10-04T11:43:08;1.30;;;1.20;;
12846;SDS011;6492;48.128;8.320;2022-10-04T11:47:32;1.48;;;1.38;;
12846;SDS011;6492;48.128;8.320;2022-10-04T11:51:52;2.35;;;1.48;;
12846;SDS011;6492;48.128;8.320;2022-10-04T11:56:20;1.52;;;1.25;;
12846;SDS011;6492;48.128;8.320;2022-10-04T12:00:45;1.50;;;1.40;;
12846;SDS011;6492;48.128;8.320;2022-10-04T12:09:43;1.73;;;1.60;;
12846;SDS011;6492;48.128;8.320;2022-10-04T12:13:52;1.60;;;1.50;;
12846;SDS011;6492;48.128;8.320;2022-10-04T12:18:25;1.70;;;1.60;;
12846;SDS011;6492;48.128;8.320;2022-10-04T12:22:50;2.15;;;1.50;;
12846;SDS011;6492;48.128;8.320;2022-10-04T12:27:24;1.77;;;1.50;;
12846;SDS011;6492;48.128;8.320;2022-10-04T12:31:40;2.47;;;1.77;;
12846;SDS011;6492;48.128;8.320;2022-10-04T12:35:50;1.40;;;1.30;;
12846;SDS011;6492;48.128;8.320;2022-10-04T12:44:28;1.60;;;1.50;;
12846;SDS011;6492;48.128;8.320;2022-10-04T12:53:11;1.80;;;1.70;;
12846;SDS011;6492;48.128;8.320;2022-10-04T12:57:22;2.05;;;1.85;;
12846;SDS011;6492;48.128;8.320;2022-10-04T13:01:35;2.20;;;1.90;;
12846;SDS011;6492;48.128;8.320;2022-10-04T13:05:49;2.38;;;2.17;;
12846;SDS011;6492;48.128;8.320;2022-10-04T13:10:08;3.33;;;2.17;;
12846;SDS011;6492;48.128;8.320;2022-10-04T13:14:34;2.70;;;2.20;;
12846;SDS011;6492;48.128;8.320;2022-10-04T13:18:50;3.00;;;2.10;;
12846;SDS011;6492;48.128;8.320;2022-10-04T13:23:00;2.10;;;2.00;;
12846;SDS011;6492;48.128;8.320;2022-10-04T13:27:11;3.30;;;2.20;;
12846;SDS011;6492;48.128;8.320;2022-10-04T13:31:19;2.58;;;2.38;;
12846;SDS011;6492;48.128;8.320;2022-10-04T13:35:24;2.80;;;2.60;;
12846;SDS011;6492;48.128;8.320;2022-10-04T13:39:39;2.70;;;2.45;;
12846;SDS011;6492;48.128;8.320;2022-10-04T13:43:57;4.28;;;2.60;;
12846;SDS011;6492;48.128;8.320;2022-10-04T13:48:30;2.60;;;2.40;;
12846;SDS011;6492;48.128;8.320;2022-10-04T13:52:41;2.70;;;2.50;;
12846;SDS011;6492;48.128;8.320;2022-10-04T13:57:15;2.72;;;2.53;;
12846;SDS011;6492;48.128;8.320;2022-10-04T14:01:30;2.60;;;2.40;;
12846;SDS011;6492;48.128;8.320;2022-10-04T14:10:36;2.75;;;2.53;;
12846;SDS011;6492;48.128;8.320;2022-10-04T14:15:15;3.35;;;2.40;;
12846;SDS011;6492;48.128;8.320;2022-10-04T14:29:01;2.58;;;2.38;;
12846;SDS011;6492;48.128;8.320;2022-10-04T14:38:18;2.97;;;2.33;;
12846;SDS011;6492;48.128;8.320;2022-10-04T14:42:47;5.18;;;3.33;;
12846;SDS011;6492;48.128;8.320;2022-10-04T14:47:09;2.88;;;2.53;;
12846;SDS011;6492;48.128;8.320;2022-10-04T14:51:25;2.60;;;2.40;;
12846;SDS011;6492;48.128;8.320;2022-10-04T15:00:02;3.42;;;2.70;;
12846;SDS011;6492;48.128;8.320;2022-10-04T15:04:19;2.97;;;2.67;;
12846;SDS011;6492;48.128;8.320;2022-10-04T15:08:50;3.17;;;2.65;;
12846;SDS011;6492;48.128;8.320;2022-10-04T15:13:23;3.63;;;2.80;;
12846;SDS011;6492;48.128;8.320;2022-10-04T15:17:31;2.90;;;2.70;;
12846;SDS011;6492;48.128;8.320;2022-10-04T15:21:40;2.72;;;2.20;;
12846;SDS011;6492;48.128;8.320;2022-10-04T15:25:53;3.28;;;2.08;;
12846;SDS011;6492;48.128;8.320;2022-10-04T15:30:08;3.22;;;2.13;;
12846;SDS011;6492;48.128;8.320;2022-10-04T15:34:22;3.50;;;2.67;;
12846;SDS011;6492;48.128;8.320;2022-10-04T15:38:33;3.22;;;2.30;;
12846;SDS011;6492;48.128;8.320;2022-10-04T15:43:04;3.05;;;2.42;;
12846;SDS011;6492;48.128;8.320;2022-10-04T15:47:21;4.03;;;3.63;;
12846;SDS011;6492;48.128;8.320;2022-10-04T15:51:34;4.40;;;4.00;;
12846;SDS011;6492;48.128;8.320;2022-10-04T15:56:00;4.05;;;2.50;;
12846;SDS011;6492;48.128;8.320;2022-10-04T16:00:22;2.58;;;2.38;;
12846;SDS011;6492;48.128;8.320;2022-10-04T16:04:40;2.40;;;2.20;;
12846;SDS011;6492;48.128;8.320;2022-10-04T16:22:33;2.50;;;2.30;;
12846;SDS011;6492;48.128;8.320;2022-10-04T16:31:12;3.17;;;2.87;;
12846;SDS011;6492;48.128;8.320;2022-10-04T16:35:23;2.80;;;2.60;;
12846;SDS011;6492;48.128;8.320;2022-10-04T16:39:33;3.33;;;3.03;;
12846;SDS011;6492;48.128;8.320;2022-10-04T16:48:50;15.43;;;14.17;;
12846;SDS011;6492;48.128;8.320;2022-10-04T16:52:57;3.17;;;2.97;;
12846;SDS011;6492;48.128;8.320;2022-10-04T16:57:20;4.40;;;3.43;;
12846;SDS011;6492;48.128;8.320;2022-10-04T17:06:11;4.40;;;3.10;;
12846;SDS011;6492;48.128;8.320;2022-10-04T17:10:16;4.57;;;3.80;;
12846;SDS011;6492;48.128;8.320;2022-10-04T17:14:33;3.77;;;3.10;;
12846;SDS011;6492;48.128;8.320;2022-10-04T17:28:19;8.40;;;7.13;;
12846;SDS011;6492;48.128;8.320;2022-10-04T17:32:33;5.37;;;4.57;;
12846;SDS011;6492;48.128;8.320;2022-10-04T17:36:48;5.60;;;4.80;;
12846;SDS011;6492;48.128;8.320;2022-10-04T17:40:58;12.57;;;9.60;;
12846;SDS011;6492;48.128;8.320;2022-10-04T17:49:39;5.10;;;4.50;;
12846;SDS011;6492;48.128;8.320;2022-10-04T17:54:09;6.27;;;4.00;;
12846;SDS011;6492;48.128;8.320;2022-10-04T17:58:36;6.17;;;4.40;;
12846;SDS011;6492;48.128;8.320;2022-10-04T18:03:03;4.40;;;3.60;;
12846;SDS011;6492;48.128;8.320;2022-10-04T18:07:24;6.80;;;5.53;;
12846;SDS011;6492;48.128;8.320;2022-10-04T18:11:32;5.43;;;4.20;;
12846;SDS011;6492;48.128;8.320;2022-10-04T18:15:43;4.47;;;4.07;;
12846;SDS011;6492;48.128;8.320;2022-10-04T18:20:05;4.27;;;3.83;;
12846;SDS011;6492;48.128;8.320;2022-10-04T18:24:28;4.83;;;4.07;;
12846;SDS011;6492;48.128;8.320;2022-10-04T18:28:32;6.83;;;4.83;;
12846;SDS011;6492;48.128;8.320;2022-10-04T18:32:34;7.63;;;6.20;;
12846;SDS011;6492;48.128;8.320;2022-10-04T18:36:45;6.47;;;5.77;;
12846;SDS011;6492;48.128;8.320;2022-10-04T18:40:54;5.00;;;4.50;;
12846;SDS011;6492;48.128;8.320;2022-10-04T18:49:43;4.60;;;4.20;;
12846;SDS011;6492;48.128;8.320;2022-10-04T18:53:48;5.90;;;4.70;;
12846;SDS011;6492;48.128;8.320;2022-10-04T18:57:59;4.40;;;4.00;;
12846;SDS011;6492;48.128;8.320;2022-10-04T19:02:28;8.10;;;5.87;;
12846;SDS011;6492;48.128;8.320;2022-10-04T19:06:56;6.23;;;5.23;;
12846;SDS011;6492;48.128;8.320;2022-10-04T19:11:05;4.97;;;4.30;;
12846;SDS011;6492;48.128;8.320;2022-10-04T19:15:18;6.40;;;4.50;;
12846;SDS011;6492;48.128;8.320;2022-10-04T19:19:34;5.70;;;4.43;;
12846;SDS011;6492;48.128;8.320;2022-10-04T19:24:03;7.03;;;4.00;;
12846;SDS011;6492;48.128;8.320;2022-10-04T19:28:30;5.73;;;3.93;;
12846;SDS011;6492;48.128;8.320;2022-10-04T19:32:38;7.70;;;4.00;;
12846;SDS011;6492;48.128;8.320;2022-10-04T19:36:54;12.93;;;9.77;;
12846;SDS011;6492;48.128;8.320;2022-10-04T19:41:02;6.03;;;5.10;;
12846;SDS011;6492;48.128;8.320;2022-10-04T19:45:15;28.00;;;21.60;;
12846;SDS011;6492;48.128;8.320;2022-10-04T19:49:25;8.90;;;6.87;;
12846;SDS011;6492;48.128;8.320;2022-10-04T19:53:38;5.63;;;5.13;;
12846;SDS011;6492;48.128;8.320;2022-10-04T19:57:42;4.60;;;4.20;;
12846;SDS011;6492;48.128;8.320;2022-10-04T20:01:51;4.87;;;4.47;;
12846;SDS011;6492;48.128;8.320;2022-10-04T20:05:54;4.63;;;4.10;;
12846;SDS011;6492;48.128;8.320;2022-10-04T20:10:05;4.10;;;3.37;;
12846;SDS011;6492;48.128;8.320;2022-10-04T20:23:17;6.27;;;4.67;;
12846;SDS011;6492;48.128;8.320;2022-10-04T20:27:58;9.27;;;6.50;;
12846;SDS011;6492;48.128;8.320;2022-10-04T20:32:03;8.60;;;7.60;;
12846;SDS011;6492;48.128;8.320;2022-10-04T20:40:48;7.33;;;5.93;;
12846;SDS011;6492;48.128;8.320;2022-10-04T20:44:53;5.80;;;5.20;;
12846;SDS011;6492;48.128;8.320;2022-10-04T20:48:56;5.97;;;5.37;;
12846;SDS011;6492;48.128;8.320;2022-10-04T20:53:14;5.97;;;5.33;;
12846;SDS011;6492;48.128;8.320;2022-10-04T20:57:20;5.13;;;4.63;;
12846;SDS011;6492;48.128;8.320;2022-10-04T21:01:23;4.97;;;4.07;;
12846;SDS011;6492;48.128;8.320;2022-10-04T21:05:44;3.37;;;3.07;;
12846;SDS011;6492;48.128;8.320;2022-10-04T21:10:04;3.27;;;2.97;;
12846;SDS011;6492;48.128;8.320;2022-10-04T21:14:09;2.97;;;2.67;;
12846;SDS011;6492;48.128;8.320;2022-10-04T21:18:22;4.17;;;2.63;;
12846;SDS011;6492;48.128;8.320;2022-10-04T21:22:34;3.37;;;2.73;;
12846;SDS011;6492;48.128;8.320;2022-10-04T21:26:53;2.90;;;2.30;;
12846;SDS011;6492;48.128;8.320;2022-10-04T21:30:57;2.63;;;2.43;;
12846;SDS011;6492;48.128;8.320;2022-10-04T21:35:00;3.30;;;2.20;;
12846;SDS011;6492;48.128;8.320;2022-10-04T21:39:02;2.20;;;2.00;;
12846;SDS011;6492;48.128;8.320;2022-10-04T21:43:04;2.90;;;2.00;;
12846;SDS011;6492;48.128;8.320;2022-10-04T21:47:07;2.20;;;2.00;;
12846;SDS011;6492;48.128;8.320;2022-10-04T21:51:09;2.87;;;2.20;;
12846;SDS011;6492;48.128;8.320;2022-10-04T21:55:11;3.23;;;1.80;;
12846;SDS011;6492;48.128;8.320;2022-10-04T21:59:13;1.90;;;1.60;;
12846;SDS011;6492;48.128;8.320;2022-10-04T22:03:16;2.10;;;1.80;;
12846;SDS011;6492;48.128;8.320;2022-10-04T22:07:18;2.73;;;1.73;;
12846;SDS011;6492;48.128;8.320;2022-10-04T22:11:20;2.93;;;2.00;;
12846;SDS011;6492;48.128;8.320;2022-10-04T22:15:25;2.00;;;1.80;;
12846;SDS011;6492;48.128;8.320;2022-10-04T22:19:29;1.70;;;1.60;;
12846;SDS011;6492;48.128;8.320;2022-10-04T22:23:35;1.70;;;1.60;;
12846;SDS011;6492;48.128;8.320;2022-10-04T22:27:38;1.80;;;1.70;;
12846;SDS011;6492;48.128;8.320;2022-10-04T22:31:40;2.30;;;1.70;;
12846;SDS011;6492;48.128;8.320;2022-10-04T22:36:04;2.90;;;1.77;;
12846;SDS011;6492;48.128;8.320;2022-10-04T22:40:14;1.70;;;1.60;;
12846;SDS011;6492;48.128;8.320;2022-10-04T22:44:18;3.80;;;1.90;;
12846;SDS011;6492;48.128;8.320;2022-10-04T22:48:22;2.30;;;1.90;;
12846;SDS011;6492;48.128;8.320;2022-10-04T22:52:29;2.23;;;1.70;;
12846;SDS011;6492;48.128;8.320;2022-10-04T22:56:31;2.23;;;1.57;;
12846;SDS011;6492;48.128;8.320;2022-10-04T23:00:32;2.23;;;1.70;;
12846;SDS011;6492;48.128;8.320;2022-10-04T23:04:35;1.70;;;1.60;;
12846;SDS011;6492;48.128;8.320;2022-10-04T23:08:38;1.43;;;1.33;;
12846;SDS011;6492;48.128;8.320;2022-10-04T23:12:42;2.70;;;1.87;;
12846;SDS011;6492;48.128;8.320;2022-10-04T23:16:45;1.70;;;1.60;;
12846;SDS011;6492;48.128;8.320;2022-10-04T23:20:47;1.53;;;1.40;;
12846;SDS011;6492;48.128;8.320;2022-10-04T23:24:54;2.10;;;1.67;;
12846;SDS011;6492;48.128;8.320;2022-10-04T23:28:56;2.83;;;1.97;;
12846;SDS011;6492;48.128;8.320;2022-10-04T23:32:59;2.83;;;1.93;;
12846;SDS011;6492;48.128;8.320;2022-10-04T23:37:01;2.00;;;1.80;;
12846;SDS011;6492;48.128;8.320;2022-10-04T23:41:07;2.27;;;2.00;;
12846;SDS011;6492;48.128;8.320;2022-10-04T23:45:13;2.43;;;1.90;;
12846;SDS011;6492;48.128;8.320;2022-10-04T23:49:18;3.57;;;2.37;;
12846;SDS011;6492;48.128;8.320;2022-10-04T23:53:22;4.60;;;2.50;;
12846;SDS011;6492;48.128;8.320;2022-10-04T23:57:27;2.57;;;2.37;;
